Time;durP1;ratioP1;P1;durP2;ratioP2;P2;SDS_P1;SDS_P2;PMS_P1;PMS_P2;Temp;Humidity;BMP_temperature;BMP_pressure;BME280_temperature;BME280_humidity;BME280_pressure;Samples;Min_cycle;Max_cycle;Signal;HPM_P1;HPM_P2
2022/12/05 00:01:41;;;;;;;72.90;30.98;;;4.50;99.90;;;;;;6162741;23;20061;-73
2022/12/05 00:04:13;;;;;;;75.30;31.50;;;4.50;99.90;;;;;;6137153;23;20422;-73
2022/12/05 00:06:42;;;;;;;74.55;31.00;;;4.50;99.90;;;;;;6198025;23;20485;-72
2022/12/05 00:09:12;;;;;;;76.53;30.60;;;4.60;99.90;;;;;;6187811;23;20322;-73
2022/12/05 00:11:41;;;;;;;72.95;29.60;;;5.30;99.90;;;;;;6186403;23;20319;-73
2022/12/05 00:14:10;;;;;;;75.57;31.17;;;4.50;99.90;;;;;;6161932;23;20078;-73
2022/12/05 00:16:40;;;;;;;65.03;30.30;;;4.50;99.90;;;;;;6196312;23;20035;-73
2022/12/05 00:19:10;;;;;;;68.90;28.95;;;4.60;99.90;;;;;;6162356;23;20020;-73
2022/12/05 00:21:38;;;;;;;69.75;30.55;;;4.60;99.90;;;;;;6186577;23;20013;-73
2022/12/05 00:24:07;;;;;;;71.05;31.20;;;4.60;99.90;;;;;;6186466;23;20013;-72
2022/12/05 00:26:35;;;;;;;62.90;28.60;;;4.60;99.90;;;;;;6197663;23;20013;-73
2022/12/05 00:29:03;;;;;;;70.97;29.25;;;4.60;99.90;;;;;;6161676;23;20020;-73
2022/12/05 00:31:31;;;;;;;64.88;28.23;;;4.60;99.90;;;;;;6186436;23;20024;-73
2022/12/05 00:34:00;;;;;;;65.57;29.30;;;4.60;99.90;;;;;;6187881;23;20013;-73
2022/12/05 00:36:31;;;;;;;66.20;30.63;;;4.60;99.90;;;;;;6196155;23;20016;-73
2022/12/05 00:39:00;;;;;;;66.55;30.25;;;4.60;99.90;;;;;;6197143;23;20016;-73
2022/12/05 00:41:29;;;;;;;72.05;31.08;;;4.60;99.90;;;;;;6161964;23;20020;-73
2022/12/05 00:43:59;;;;;;;74.22;30.67;;;4.60;99.90;;;;;;6186331;23;20422;-73
2022/12/05 00:46:29;;;;;;;65.88;29.23;;;4.60;99.90;;;;;;6196481;23;20357;-73
2022/12/05 00:48:58;;;;;;;65.35;29.95;;;4.60;99.90;;;;;;6187447;23;20024;-73
2022/12/05 00:51:28;;;;;;;72.40;31.90;;;4.60;99.90;;;;;;6186184;23;20020;-73
2022/12/05 00:54:01;;;;;;;65.03;30.35;;;4.60;99.90;;;;;;6197617;23;20020;-74
2022/12/05 00:56:30;;;;;;;78.93;33.15;;;4.60;99.90;;;;;;6165152;23;20418;-73
2022/12/05 00:58:59;;;;;;;72.70;31.67;;;4.60;99.90;;;;;;6187477;23;20020;-73
2022/12/05 01:01:39;;;;;;;71.43;32.70;;;4.60;99.90;;;;;;6187401;23;20013;-73
2022/12/05 01:04:10;;;;;;;73.43;33.00;;;4.60;99.90;;;;;;6196198;23;20013;-73
2022/12/05 01:06:39;;;;;;;73.00;32.67;;;4.60;99.90;;;;;;6136385;23;20025;-73
2022/12/05 01:09:07;;;;;;;74.28;34.67;;;4.60;99.90;;;;;;6187632;23;20013;-73
2022/12/05 01:11:35;;;;;;;78.22;34.00;;;4.60;99.90;;;;;;6160446;23;20017;-73
2022/12/05 01:14:10;;;;;;;73.72;34.00;;;5.90;99.90;;;;;;6198178;23;20017;-73
2022/12/05 01:16:40;;;;;;;84.70;35.35;;;5.60;99.90;;;;;;6196328;23;20024;-73
2022/12/05 01:19:11;;;;;;;76.55;33.38;;;4.60;99.90;;;;;;6187294;23;20017;-74
2022/12/05 01:21:40;;;;;;;81.68;35.22;;;4.90;99.90;;;;;;6171723;23;20009;-73
2022/12/05 01:24:09;;;;;;;71.68;31.35;;;4.70;99.90;;;;;;6160370;23;20325;-73
2022/12/05 01:26:37;;;;;;;87.97;35.65;;;4.70;99.90;;;;;;6197057;23;20013;-73
2022/12/05 01:29:04;;;;;;;80.63;34.10;;;6.30;99.90;;;;;;6160215;23;20032;-72
2022/12/05 01:31:35;;;;;;;81.97;36.30;;;4.70;99.90;;;;;;6160565;23;20020;-73
2022/12/05 01:34:05;;;;;;;81.85;34.03;;;4.70;99.90;;;;;;6197557;23;20291;-73
2022/12/05 01:36:33;;;;;;;78.22;33.22;;;4.70;99.90;;;;;;6195947;23;20417;-73
2022/12/05 01:39:01;;;;;;;81.00;34.75;;;4.90;99.90;;;;;;6187272;23;20009;-72
2022/12/05 01:41:35;;;;;;;76.88;34.10;;;4.70;99.90;;;;;;6160779;23;20021;-73
2022/12/05 01:44:11;;;;;;;77.57;34.65;;;4.70;99.90;;;;;;6170441;23;20020;-73
2022/12/05 01:46:50;;;;;;;73.38;34.88;;;4.70;99.90;;;;;;6160658;23;20017;-73
2022/12/05 01:49:30;;;;;;;71.95;34.97;;;4.70;99.90;;;;;;6197719;23;20414;-73
2022/12/05 01:52:04;;;;;;;74.00;36.38;;;4.70;99.90;;;;;;6162227;23;20021;-72
2022/12/05 01:54:33;;;;;;;73.45;34.22;;;5.80;99.90;;;;;;6199455;23;20017;-73
2022/12/05 01:57:10;;;;;;;73.65;35.22;;;4.70;99.90;;;;;;6190512;23;20013;-73
2022/12/05 01:59:45;;;;;;;75.00;35.63;;;4.80;99.90;;;;;;6199103;23;20016;-73
2022/12/05 02:02:13;;;;;;;71.75;34.33;;;4.80;99.90;;;;;;6198238;23;20016;-73
2022/12/05 02:04:49;;;;;;;76.75;35.17;;;4.80;99.90;;;;;;6187829;23;20326;-72
2022/12/05 02:07:18;;;;;;;75.78;35.35;;;4.80;99.90;;;;;;6173480;23;20013;-73
2022/12/05 02:09:47;;;;;;;71.55;34.50;;;4.80;99.90;;;;;;6187642;23;20017;-74
2022/12/05 02:12:16;;;;;;;72.55;33.50;;;4.80;99.90;;;;;;6188921;23;20020;-73
2022/12/05 02:14:50;;;;;;;74.72;35.67;;;4.80;99.90;;;;;;6187959;23;20426;-73
2022/12/05 02:17:42;;;;;;;73.30;35.10;;;4.80;99.90;;;;;;6160596;23;20036;-74
2022/12/05 02:20:19;;;;;;;76.13;35.70;;;4.80;99.90;;;;;;6199130;23;20017;-73
2022/12/05 02:23:22;;;;;;;74.03;33.58;;;4.80;99.90;;;;;;6160580;23;20017;-73
2022/12/05 02:26:16;;;;;;;67.68;31.92;;;4.90;99.90;;;;;;6124778;23;20017;-73
2022/12/05 02:29:18;;;;;;;66.72;32.97;;;4.90;99.90;;;;;;6188957;23;20016;-74
2022/12/05 02:32:08;;;;;;;71.32;34.08;;;4.90;99.90;;;;;;6108726;23;20021;-74
2022/12/05 02:35:07;;;;;;;57.47;29.88;;;4.90;99.90;;;;;;6198933;23;20009;-72
2022/12/05 02:38:01;;;;;;;68.75;31.02;;;4.90;99.90;;;;;;6108985;23;20017;-73
2022/12/05 02:40:38;;;;;;;60.03;29.67;;;4.90;99.90;;;;;;6198986;23;20013;-73
2022/12/05 02:43:18;;;;;;;69.88;31.88;;;4.90;99.90;;;;;;6197470;23;20024;-73
2022/12/05 02:45:50;;;;;;;61.95;32.13;;;4.90;99.90;;;;;;6172858;23;20013;-73
2022/12/05 02:48:19;;;;;;;59.55;29.50;;;5.00;99.90;;;;;;6198876;23;20017;-73
2022/12/05 02:50:49;;;;;;;63.28;29.92;;;5.00;99.90;;;;;;6161417;23;20013;-73
2022/12/05 02:53:18;;;;;;;65.18;30.02;;;5.70;99.90;;;;;;6162337;23;20021;-73
2022/12/05 02:55:46;;;;;;;62.55;29.88;;;5.60;99.90;;;;;;6164387;23;20018;-73
2022/12/05 02:58:17;;;;;;;;;;;5.20;99.90;;;;;;6167693;23;20029;-73
2022/12/05 03:00:48;;;;;;;50.30;23.88;;;5.00;99.90;;;;;;6133324;23;19916;-74
2022/12/05 03:03:21;;;;;;;50.22;25.35;;;5.00;99.90;;;;;;6167612;23;20010;-73
2022/12/05 03:06:06;;;;;;;60.45;28.35;;;5.00;99.90;;;;;;6168737;23;20009;-73
2022/12/05 03:08:41;;;;;;;55.05;26.90;;;5.00;99.90;;;;;;6168527;23;20020;-73
2022/12/05 03:11:09;;;;;;;49.88;25.08;;;5.10;99.90;;;;;;6142008;23;20009;-73
2022/12/05 03:13:56;;;;;;;45.38;25.50;;;6.10;99.90;;;;;;6158730;23;20074;-73
2022/12/05 03:16:32;;;;;;;46.45;24.95;;;5.00;99.90;;;;;;6167299;23;20023;-73
2022/12/05 03:19:18;;;;;;;56.58;28.33;;;5.00;99.90;;;;;;6142722;23;20020;-73
2022/12/05 03:21:55;;;;;;;55.10;26.50;;;5.10;99.90;;;;;;6107865;23;20014;-74
2022/12/05 03:24:23;;;;;;;57.30;27.30;;;5.10;99.90;;;;;;6167306;23;20021;-73
2022/12/05 03:27:03;;;;;;;50.33;25.30;;;5.10;99.90;;;;;;6131733;23;20048;-73
2022/12/05 03:29:38;;;;;;;55.38;26.67;;;5.10;99.90;;;;;;6117150;23;20330;-73
2022/12/05 03:32:30;;;;;;;50.60;26.02;;;5.10;99.90;;;;;;6143100;23;20296;-73
2022/12/05 03:35:10;;;;;;;50.60;25.17;;;5.10;99.90;;;;;;6142535;23;20043;-73
2022/12/05 03:37:44;;;;;;;50.47;25.63;;;5.10;99.90;;;;;;6141238;23;20014;-74
2022/12/05 03:40:25;;;;;;;56.75;26.02;;;5.10;99.90;;;;;;6133469;23;20013;-74
2022/12/05 03:43:26;;;;;;;53.25;26.15;;;5.10;99.90;;;;;;6167044;23;20035;-73
2022/12/05 03:46:08;;;;;;;55.15;26.33;;;5.10;99.90;;;;;;6098908;23;20025;-73
2022/12/05 03:48:57;;;;;;;46.17;24.92;;;5.10;99.90;;;;;;6133201;23;20036;-72
2022/12/05 03:51:45;;;;;;;50.03;25.58;;;5.10;99.90;;;;;;6157164;23;20018;-72
2022/12/05 03:54:17;;;;;;;;;;;5.10;99.90;;;;;;6143218;23;20017;-74
2022/12/05 03:56:50;;;;;;;49.47;24.88;;;5.10;99.90;;;;;;6178743;23;19927;-73
2022/12/05 03:59:29;;;;;;;54.35;26.85;;;5.10;99.90;;;;;;6198507;23;20013;-73
2022/12/05 04:02:00;;;;;;;50.50;25.67;;;6.20;99.90;;;;;;6172376;23;20020;-73
2022/12/05 04:04:38;;;;;;;50.03;25.45;;;5.20;99.90;;;;;;6136285;23;20024;-73
2022/12/05 04:07:08;;;;;;;53.13;25.80;;;5.20;99.90;;;;;;6198138;23;20017;-74
2022/12/05 04:09:44;;;;;;;56.60;27.23;;;5.60;99.90;;;;;;6160856;23;20017;-73
2022/12/05 04:12:17;;;;;;;52.90;26.02;;;5.20;99.90;;;;;;6172118;23;20017;-73
2022/12/05 04:14:53;;;;;;;50.75;25.50;;;5.20;99.90;;;;;;6197961;23;20017;-73
2022/12/05 04:17:43;;;;;;;52.05;26.13;;;5.20;99.90;;;;;;6196309;23;20020;-73
2022/12/05 04:23:17;;;;;;;52.60;26.55;;;5.20;99.90;;;;;;6196395;23;20009;-73
2022/12/05 04:26:18;;;;;;;53.80;26.67;;;5.20;99.90;;;;;;6161652;23;20021;-73
2022/12/05 04:28:54;;;;;;;53.40;25.38;;;5.20;99.90;;;;;;6198157;23;20024;-74
2022/12/05 04:31:25;;;;;;;53.45;26.58;;;5.20;99.90;;;;;;6196471;23;20013;-72
2022/12/05 04:34:01;;;;;;;58.75;25.80;;;5.20;99.90;;;;;;6186408;23;20024;-73
2022/12/05 04:36:54;;;;;;;52.45;25.85;;;5.20;99.90;;;;;;6196256;23;20013;-73
2022/12/05 04:39:32;;;;;;;56.75;25.27;;;5.20;99.90;;;;;;6197742;23;20009;-72
2022/12/05 04:42:02;;;;;;;47.60;23.20;;;5.20;99.90;;;;;;6171949;23;20016;-73
2022/12/05 04:44:39;;;;;;;50.50;26.15;;;5.20;99.90;;;;;;6136198;23;20048;-73
2022/12/05 04:47:09;;;;;;;52.88;25.42;;;5.20;99.90;;;;;;6162242;23;20017;-72
2022/12/05 04:49:39;;;;;;;51.28;25.05;;;5.20;99.90;;;;;;6186615;23;20330;-73
2022/12/05 04:52:10;;;;;;;49.00;24.80;;;5.20;99.90;;;;;;6197558;23;20023;-73
2022/12/05 04:54:41;;;;;;;56.88;24.88;;;5.20;99.90;;;;;;6161775;23;20028;-73
2022/12/05 04:57:35;;;;;;;48.65;23.50;;;5.20;99.90;;;;;;6184490;23;20028;-73
2022/12/05 05:00:04;;;;;;;53.75;23.42;;;5.30;99.90;;;;;;6197902;23;20017;-73
2022/12/05 05:02:39;;;;;;;46.35;22.15;;;5.30;99.90;;;;;;6187476;23;20013;-73
2022/12/05 05:05:10;;;;;;;45.63;22.70;;;5.30;99.90;;;;;;6160632;23;20013;-73
2022/12/05 05:07:46;;;;;;;43.25;22.92;;;5.30;99.90;;;;;;6197385;23;20013;-74
2022/12/05 05:10:24;;;;;;;43.55;21.73;;;5.30;99.90;;;;;;6170596;23;20019;-73
2022/12/05 05:12:52;;;;;;;41.38;22.08;;;5.40;99.90;;;;;;6137115;23;20032;-73
2022/12/05 05:15:19;;;;;;;44.95;21.95;;;5.40;99.90;;;;;;6187475;23;20013;-74
2022/12/05 05:17:47;;;;;;;39.33;20.23;;;5.40;99.90;;;;;;6195903;23;20017;-73
2022/12/05 05:20:23;;;;;;;37.28;17.92;;;7.50;99.90;;;;;;6161844;23;20013;-72
2022/12/05 05:22:51;;;;;;;41.05;19.95;;;5.40;99.90;;;;;;6170334;23;20009;-72
2022/12/05 05:25:19;;;;;;;34.45;16.88;;;5.40;99.90;;;;;;6188911;23;20013;-73
2022/12/05 05:27:52;;;;;;;37.85;17.13;;;5.40;99.90;;;;;;6198826;23;20314;-73
2022/12/05 05:30:21;;;;;;;32.50;16.95;;;5.50;99.90;;;;;;6198591;23;20013;-73
2022/12/05 05:32:49;;;;;;;34.40;18.70;;;5.50;99.90;;;;;;6188684;23;20354;-73
2022/12/05 05:35:16;;;;;;;33.58;18.55;;;5.50;99.90;;;;;;6189452;23;20028;-72
2022/12/05 05:37:44;;;;;;;35.53;17.13;;;5.50;99.90;;;;;;6162217;23;20013;-73
2022/12/05 05:40:12;;;;;;;39.17;18.85;;;5.80;99.90;;;;;;6189542;23;20291;-73
2022/12/05 05:42:45;;;;;;;33.20;17.77;;;5.50;99.90;;;;;;6188208;23;20009;-72
2022/12/05 05:45:14;;;;;;;38.85;18.75;;;5.50;99.90;;;;;;6199185;23;20020;-73
2022/12/05 05:47:42;;;;;;;38.85;17.98;;;5.50;99.90;;;;;;6199183;23;20017;-73
2022/12/05 05:50:10;;;;;;;30.55;17.15;;;5.60;99.90;;;;;;6188159;23;20017;-73
2022/12/05 05:52:44;;;;;;;37.40;18.42;;;5.50;99.90;;;;;;6138840;23;20460;-73
2022/12/05 05:55:11;;;;;;;33.08;18.35;;;5.60;99.90;;;;;;6163046;23;20032;-72
2022/12/05 05:57:39;;;;;;;37.22;19.52;;;5.60;99.90;;;;;;6187652;23;20323;-72
2022/12/05 06:00:07;;;;;;;31.83;18.30;;;5.60;99.90;;;;;;6163150;23;20449;-73
2022/12/05 06:02:35;;;;;;;37.47;19.13;;;5.60;99.90;;;;;;6189600;23;20013;-73
2022/12/05 06:05:04;;;;;;;39.20;19.08;;;7.10;99.90;;;;;;6187850;23;20009;-73
2022/12/05 06:07:31;;;;;;;32.83;18.45;;;5.60;99.90;;;;;;6173328;23;20020;-73
2022/12/05 06:09:59;;;;;;;35.72;19.42;;;5.60;99.90;;;;;;6161724;23;20445;-72
2022/12/05 06:12:27;;;;;;;;;;;5.60;99.90;;;;;;6164327;23;20013;-73
2022/12/05 06:14:55;;;;;;;38.03;19.77;;;5.60;99.90;;;;;;6189162;23;19939;-73
2022/12/05 06:17:22;;;;;;;35.45;20.25;;;5.60;99.90;;;;;;6171674;23;20035;-73
2022/12/05 06:19:50;;;;;;;42.33;20.20;;;6.50;99.90;;;;;;6138451;23;20456;-73
2022/12/05 06:22:17;;;;;;;37.25;18.55;;;5.50;99.90;;;;;;6162779;23;20017;-73
2022/12/05 06:24:45;;;;;;;38.80;18.55;;;5.60;99.90;;;;;;6161720;23;20017;-73
2022/12/05 06:27:12;;;;;;;31.90;18.98;;;5.60;99.90;;;;;;6163550;23;20449;-73
2022/12/05 06:29:40;;;;;;;37.22;19.50;;;5.70;99.90;;;;;;6161719;23;20314;-72
2022/12/05 06:32:08;;;;;;;41.72;19.90;;;5.60;99.90;;;;;;6163109;23;20017;-72
2022/12/05 06:34:35;;;;;;;35.80;19.42;;;7.60;99.90;;;;;;6162632;23;20021;-73
2022/12/05 06:37:03;;;;;;;44.58;20.25;;;7.90;99.90;;;;;;6171890;23;20024;-73
2022/12/05 06:39:31;;;;;;;38.72;20.60;;;8.00;99.90;;;;;;6162955;23;20012;-72
2022/12/05 06:41:58;;;;;;;36.95;19.20;;;5.70;99.90;;;;;;6188656;23;20028;-74
2022/12/05 06:44:27;;;;;;;36.40;19.38;;;5.70;99.90;;;;;;6187444;23;20013;-74
2022/12/05 06:46:55;;;;;;;40.15;20.00;;;5.70;99.90;;;;;;6138342;23;20028;-74
2022/12/05 06:49:31;;;;;;;34.10;18.95;;;5.70;99.90;;;;;;6161537;23;20013;-74
2022/12/05 06:52:04;;;;;;;29.13;16.63;;;6.20;99.90;;;;;;6138485;23;20073;-74
2022/12/05 06:54:32;;;;;;;32.78;17.15;;;6.20;99.90;;;;;;6138809;23;20307;-74
2022/12/05 06:56:59;;;;;;;34.60;17.27;;;5.80;99.90;;;;;;6140335;23;20025;-73
2022/12/05 06:59:27;;;;;;;29.58;16.35;;;5.80;99.90;;;;;;6133427;23;20009;-74
2022/12/05 07:01:54;;;;;;;33.05;16.00;;;5.80;99.90;;;;;;6158810;23;20017;-73
2022/12/05 07:04:23;;;;;;;28.52;16.00;;;5.80;99.90;;;;;;6157456;23;20013;-74
2022/12/05 07:06:52;;;;;;;28.98;15.30;;;5.80;99.90;;;;;;6167534;23;20016;-74
2022/12/05 07:09:44;;;;;;;32.05;14.52;;;5.90;99.90;;;;;;6158617;23;20017;-74
2022/12/05 07:12:12;;;;;;;25.38;14.38;;;6.60;99.90;;;;;;6133020;23;20461;-74
2022/12/05 07:14:40;;;;;;;24.38;13.55;;;6.60;99.90;;;;;;6132943;23;20024;-74
2022/12/05 07:17:19;;;;;;;34.55;16.08;;;5.90;99.90;;;;;;6141434;23;20017;-74
2022/12/05 07:19:51;;;;;;;25.65;14.55;;;5.90;99.90;;;;;;6159033;23;20041;-73
2022/12/05 07:22:21;;;;;;;27.75;14.75;;;5.90;99.90;;;;;;6168422;23;20020;-74
2022/12/05 07:24:51;;;;;;;27.77;13.60;;;5.90;99.90;;;;;;6131462;23;20024;-73
2022/12/05 07:27:19;;;;;;;29.92;13.73;;;6.00;99.90;;;;;;6133507;23;20018;-74
2022/12/05 07:29:54;;;;;;;23.80;13.02;;;6.00;99.90;;;;;;6131890;23;20032;-73
2022/12/05 07:32:21;;;;;;;28.83;13.20;;;6.10;99.90;;;;;;6158561;23;20025;-73
2022/12/05 07:34:49;;;;;;;26.35;13.02;;;6.00;99.90;;;;;;6132909;23;20021;-74
2022/12/05 07:37:22;;;;;;;27.05;13.23;;;7.30;99.90;;;;;;6106999;23;20025;-74
2022/12/05 07:39:54;;;;;;;24.42;13.15;;;6.10;99.90;;;;;;6158572;23;20016;-74
2022/12/05 07:42:22;;;;;;;26.40;12.65;;;6.10;99.90;;;;;;6133223;23;20013;-74
2022/12/05 07:44:49;;;;;;;26.48;13.85;;;6.30;99.90;;;;;;6131323;23;20013;-74
2022/12/05 07:47:17;;;;;;;29.02;14.88;;;6.10;99.90;;;;;;6132498;23;20022;-74
2022/12/05 07:49:44;;;;;;;26.77;14.32;;;6.60;99.90;;;;;;6157031;23;20038;-74
2022/12/05 07:52:12;;;;;;;28.38;15.23;;;6.10;99.90;;;;;;6133082;23;20025;-74
2022/12/05 07:54:39;;;;;;;29.23;14.82;;;6.40;99.90;;;;;;6158543;23;20315;-74
2022/12/05 07:57:07;;;;;;;30.83;15.02;;;7.80;99.90;;;;;;6180908;23;20032;-73
2022/12/05 07:59:34;;;;;;;32.50;16.10;;;6.00;99.90;;;;;;6188145;23;20310;-73
2022/12/05 08:02:02;;;;;;;29.90;16.23;;;6.80;99.90;;;;;;6187863;23;20020;-73
2022/12/05 08:04:29;;;;;;;32.45;14.38;;;6.00;99.90;;;;;;6160391;23;20017;-73
2022/12/05 08:06:57;;;;;;;30.73;15.13;;;5.90;99.90;;;;;;6113036;23;20013;-73
2022/12/05 08:09:24;;;;;;;34.67;16.25;;;5.80;99.90;;;;;;6186328;23;20020;-73
2022/12/05 08:11:54;;;;;;;32.33;16.38;;;5.80;99.90;;;;;;6187395;23;20013;-73
2022/12/05 08:14:22;;;;;;;29.65;15.18;;;6.40;99.90;;;;;;6137420;23;20020;-73
2022/12/05 08:16:50;;;;;;;32.15;14.82;;;7.40;99.90;;;;;;6196433;23;20020;-73
2022/12/05 08:19:18;;;;;;;29.73;15.70;;;6.40;99.90;;;;;;6187537;23;20013;-73
2022/12/05 08:21:45;;;;;;;29.77;15.55;;;5.60;99.90;;;;;;6162012;23;20013;-73
2022/12/05 08:24:16;;;;;;;32.75;15.27;;;6.90;99.90;;;;;;6186602;23;20010;-73
2022/12/05 08:26:43;;;;;;;30.23;14.35;;;6.60;99.90;;;;;;6196448;23;20020;-73
2022/12/05 08:29:13;;;;;;;27.00;14.32;;;7.60;99.90;;;;;;6186637;23;20013;-73
2022/12/05 08:31:47;;;;;;;33.58;14.90;;;5.70;99.90;;;;;;6186027;23;20028;-74
2022/12/05 08:34:17;;;;;;;32.55;15.95;;;6.20;99.90;;;;;;6161468;23;20036;-72
2022/12/05 08:36:45;;;;;;;31.08;15.63;;;5.80;99.90;;;;;;6160146;23;20073;-74
2022/12/05 08:39:16;;;;;;;32.47;16.63;;;8.00;99.90;;;;;;6160952;23;20017;-73
2022/12/05 08:41:45;;;;;;;35.03;15.23;;;5.80;99.90;;;;;;6171481;23;20020;-74
2022/12/05 08:44:15;;;;;;;34.72;16.48;;;5.80;99.90;;;;;;6186234;23;20422;-74
2022/12/05 08:46:46;;;;;;;28.83;14.45;;;5.80;99.90;;;;;;6185667;23;20021;-74
2022/12/05 08:49:14;;;;;;;31.05;15.15;;;5.90;99.90;;;;;;6196573;23;20028;-73
2022/12/05 08:51:42;;;;;;;31.25;16.20;;;5.90;99.90;;;;;;6186273;23;20418;-73
2022/12/05 08:54:11;;;;;;;30.20;16.15;;;5.90;99.90;;;;;;6161644;23;20024;-74
2022/12/05 08:56:38;;;;;;;;;;;5.90;99.90;;;;;;6160809;23;20300;-73
2022/12/05 08:59:06;;;;;;;29.10;16.02;;;6.00;99.90;;;;;;6187631;23;19924;-73
2022/12/05 09:01:37;;;;;;;;;;;8.00;99.90;;;;;;6188005;23;20306;-74
2022/12/05 09:04:06;;;;;;;32.75;15.55;;;6.00;99.90;;;;;;6196635;23;19916;-73
2022/12/05 09:06:34;;;;;;;32.72;15.05;;;7.40;99.90;;;;;;6171601;23;20025;-74
2022/12/05 09:09:05;;;;;;;37.13;15.85;;;6.00;99.90;;;;;;6183480;23;20021;-72
2022/12/05 09:11:36;;;;;;;31.30;15.43;;;6.00;99.90;;;;;;6169937;23;20326;-73
2022/12/05 09:14:04;;;;;;;39.75;15.85;;;6.10;99.90;;;;;;6136234;23;20326;-72
2022/12/05 09:16:36;;;;;;;34.22;14.77;;;6.10;99.90;;;;;;6195295;23;20024;-80
2022/12/05 09:19:19;;;;;;;30.05;14.65;;;8.40;99.90;;;;;;6135632;23;20028;-80
2022/12/05 09:21:57;;;;;;;33.00;15.30;;;8.50;99.90;;;;;;6171568;23;20040;-81
2022/12/05 09:24:30;;;;;;;28.10;14.75;;;6.30;99.90;;;;;;6160557;23;20028;-80
2022/12/05 09:27:07;;;;;;;30.17;15.20;;;6.30;99.90;;;;;;6172134;23;20021;-80
2022/12/05 09:29:37;;;;;;;31.38;14.55;;;6.60;99.90;;;;;;6159344;23;20020;-81
2022/12/05 09:32:08;;;;;;;30.80;14.70;;;6.30;99.90;;;;;;6197717;23;20017;-80
2022/12/05 09:34:36;;;;;;;31.08;14.55;;;6.40;99.90;;;;;;6161600;23;20021;-80
2022/12/05 09:37:06;;;;;;;;;;;7.80;99.90;;;;;;6170385;23;20017;-80
2022/12/05 09:39:54;;;;;;;29.73;14.27;;;6.90;99.90;;;;;;6141001;23;19927;-80
2022/12/05 09:42:53;;;;;;;34.03;14.80;;;8.10;99.90;;;;;;6161576;23;20442;-80
2022/12/05 09:45:45;;;;;;;29.95;15.02;;;5.30;99.90;;;;;;6197776;23;20013;-80
2022/12/05 09:48:20;;;;;;;30.30;14.93;;;6.40;99.90;;;;;;6161386;23;20017;-82
2022/12/05 09:51:02;;;;;;;25.33;13.98;;;8.80;99.90;;;;;;6148597;23;20013;-79
2022/12/05 09:53:36;;;;;;;30.45;15.05;;;6.60;99.90;;;;;;6160726;23;20310;-81
2022/12/05 09:56:21;;;;;;;34.53;14.13;;;7.90;99.90;;;;;;6192351;23;20032;-81
2022/12/05 09:58:54;;;;;;;29.17;14.50;;;6.60;99.90;;;;;;6160770;23;20322;-80
2022/12/05 10:01:40;;;;;;;29.95;13.90;;;5.40;99.90;;;;;;6162148;23;20020;-82
2022/12/05 10:04:23;;;;;;;;;;;;;;;;;;;;;
2022/12/05 10:07:32;;;;;;;22.48;13.00;;;6.60;99.90;;;;;;6197023;23;20021;-82
2022/12/05 10:10:41;;;;;;;27.42;14.60;;;6.70;99.90;;;;;;6135944;23;20017;-81
2022/12/05 10:13:23;;;;;;;27.50;13.98;;;6.90;99.90;;;;;;6162679;23;20021;-80
2022/12/05 10:15:56;;;;;;;31.98;12.88;;;6.80;99.90;;;;;;6139267;23;20028;-81
2022/12/05 10:18:42;;;;;;;30.20;12.73;;;9.40;99.90;;;;;;6161458;23;20028;-81
2022/12/05 10:21:16;;;;;;;29.73;13.60;;;6.80;99.90;;;;;;6163110;23;20017;-81
2022/12/05 10:23:50;;;;;;;27.92;12.88;;;6.00;99.90;;;;;;6147604;23;20415;-82
2022/12/05 10:26:34;;;;;;;28.17;12.10;;;6.70;99.90;;;;;;6174240;23;20012;-79
2022/12/05 10:29:18;;;;;;;25.02;12.95;;;7.70;99.90;;;;;;6163338;23;20326;-79
2022/12/05 10:31:48;;;;;;;34.33;13.63;;;6.90;99.90;;;;;;6198012;23;20016;-82
2022/12/05 10:34:37;;;;;;;27.65;12.65;;;7.10;99.90;;;;;;6189027;23;20013;-82
2022/12/05 10:37:23;;;;;;;26.95;13.40;;;6.90;99.90;;;;;;6137270;23;20021;-79
2022/12/05 10:39:54;;;;;;;29.92;12.98;;;7.40;99.90;;;;;;6162963;23;20024;-81
2022/12/05 10:42:35;;;;;;;29.15;13.80;;;7.00;99.90;;;;;;6162809;23;20438;-79
2022/12/05 10:45:23;;;;;;;28.95;13.05;;;9.00;99.90;;;;;;6118731;23;20017;-80
2022/12/05 10:47:56;;;;;;;32.53;13.82;;;7.10;99.90;;;;;;6198752;23;20013;-79
2022/12/05 10:50:32;;;;;;;26.77;13.63;;;8.40;99.90;;;;;;6147510;23;20017;-81
2022/12/05 10:53:27;;;;;;;31.50;14.70;;;7.20;99.90;;;;;;6161385;23;20031;-79
2022/12/05 10:55:55;;;;;;;31.27;14.05;;;8.10;99.90;;;;;;6155290;23;20078;-79
2022/12/05 10:58:53;;;;;;;;;;;7.10;99.90;;;;;;6169169;23;20300;-81
2022/12/05 11:01:24;;;;;;;26.23;12.40;;;7.20;99.90;;;;;;6108477;23;19928;-80
2022/12/05 11:03:57;;;;;;;27.38;13.23;;;7.90;99.90;;;;;;6108326;23;20026;-81
2022/12/05 11:06:28;;;;;;;32.53;12.63;;;7.90;99.90;;;;;;6133683;23;20017;-82
2022/12/05 11:09:01;;;;;;;23.27;12.35;;;9.00;99.90;;;;;;6158698;23;20014;-82
2022/12/05 11:11:33;;;;;;;27.88;12.80;;;9.60;99.90;;;;;;6142366;23;20013;-82
2022/12/05 11:14:03;;;;;;;23.55;12.30;;;8.30;99.90;;;;;;6158564;23;20013;-79
2022/12/05 11:16:38;;;;;;;24.58;12.25;;;9.70;99.90;;;;;;6107791;23;20458;-79
2022/12/05 11:19:21;;;;;;;26.83;12.07;;;7.50;99.90;;;;;;6156024;23;20331;-78
2022/12/05 11:21:50;;;;;;;27.33;12.50;;;7.50;99.90;;;;;;6167522;23;20017;-79
2022/12/05 11:24:30;;;;;;;27.83;12.55;;;7.80;99.90;;;;;;6155810;23;20021;-79
2022/12/05 11:27:16;;;;;;;24.20;11.57;;;7.70;99.90;;;;;;6132581;23;20032;-78
2022/12/05 11:29:55;;;;;;;21.92;11.25;;;8.00;99.90;;;;;;6166692;23;20011;-80
2022/12/05 11:32:26;;;;;;;21.55;11.77;;;7.60;99.90;;;;;;6142103;23;20017;-80
2022/12/05 11:35:12;;;;;;;21.65;11.05;;;7.50;99.90;;;;;;6131259;23;20300;-79
2022/12/05 11:37:50;;;;;;;25.73;12.15;;;7.50;99.90;;;;;;6166717;23;20303;-80
2022/12/05 11:40:48;;;;;;;28.05;12.73;;;7.60;99.90;;;;;;6166807;23;20018;-78
2022/12/05 11:43:54;;;;;;;25.45;11.63;;;7.50;99.90;;;;;;6132015;23;20021;-80
2022/12/05 11:46:44;;;;;;;26.85;12.40;;;7.40;99.90;;;;;;6107591;23;20014;-78
2022/12/05 11:49:18;;;;;;;27.95;12.65;;;7.30;99.90;;;;;;6167945;23;20014;-81
2022/12/05 11:52:33;;;;;;;31.17;13.00;;;7.50;99.90;;;;;;6131214;23;20331;-81
2022/12/05 11:55:08;;;;;;;27.13;12.50;;;7.30;99.90;;;;;;6029861;23;20021;-76
2022/12/05 11:57:46;;;;;;;;;;;7.40;99.90;;;;;;6185618;23;20032;-76
2022/12/05 12:00:23;;;;;;;21.23;11.15;;;9.50;99.90;;;;;;6173472;23;19916;-75
2022/12/05 12:03:17;;;;;;;28.73;11.80;;;7.50;99.90;;;;;;6185930;23;20009;-74
2022/12/05 12:06:05;;;;;;;31.05;13.18;;;9.90;99.90;;;;;;6106692;23;20419;-74
2022/12/05 12:08:54;;;;;;;21.98;11.93;;;7.70;99.90;;;;;;6197724;23;20035;-74
2022/12/05 12:11:48;;;;;;;22.17;11.68;;;7.90;99.90;;;;;;6171108;23;20017;-76
2022/12/05 12:14:46;;;;;;;23.15;12.70;;;9.20;99.90;;;;;;6137718;23;20052;-80
2022/12/05 12:18:03;;;;;;;26.30;12.30;;;8.00;99.90;;;;;;6185134;23;20028;-76
2022/12/05 12:20:45;;;;;;;25.38;12.88;;;8.00;99.90;;;;;;6171803;23;20013;-73
2022/12/05 12:23:43;;;;;;;24.73;12.15;;;8.20;99.90;;;;;;6196151;23;20020;-76
2022/12/05 12:26:18;;;;;;;;;;;8.10;99.90;;;;;;6161914;23;20017;-76
2022/12/05 12:29:02;;;;;;;27.90;12.55;;;8.20;99.90;;;;;;6136900;23;19916;-80
2022/12/05 12:31:42;;;;;;;28.08;12.57;;;10.30;99.90;;;;;;6169958;23;20027;-80
2022/12/05 12:34:54;;;;;;;25.45;11.85;;;8.40;99.90;;;;;;6197180;23;20020;-76
2022/12/05 12:37:52;;;;;;;24.45;11.68;;;9.60;99.90;;;;;;6161195;23;20017;-77
2022/12/05 12:40:44;;;;;;;25.55;11.55;;;8.30;99.90;;;;;;6161204;23;20442;-76
2022/12/05 12:43:32;;;;;;;25.63;12.35;;;8.30;99.90;;;;;;6196060;23;20013;-74
2022/12/05 12:46:41;;;;;;;24.90;12.07;;;8.20;99.90;;;;;;6160810;23;20312;-76
2022/12/05 12:49:29;;;;;;;24.80;12.52;;;8.10;99.90;;;;;;6197238;23;20024;-75
2022/12/05 12:52:12;;;;;;;25.13;12.30;;;8.10;99.90;;;;;;6171845;23;20013;-76
2022/12/05 12:55:04;;;;;;;26.45;12.38;;;8.00;99.90;;;;;;6197230;23;20013;-75
2022/12/05 12:57:48;;;;;;;25.23;11.80;;;8.00;99.90;;;;;;6159938;23;20047;-74
2022/12/05 13:01:01;;;;;;;30.13;11.65;;;7.90;99.90;;;;;;6196634;23;20322;-75
2022/12/05 13:03:40;;;;;;;26.88;12.15;;;7.90;99.90;;;;;;6115994;23;20017;-74
2022/12/05 13:06:38;;;;;;;23.42;12.05;;;8.00;99.90;;;;;;6171390;23;20016;-74
2022/12/05 13:09:17;;;;;;;22.25;9.65;;;8.00;99.90;;;;;;6162032;23;20065;-74
2022/12/05 13:11:47;;;;;;;25.67;10.57;;;8.10;99.90;;;;;;6195975;23;20024;-75
2022/12/05 13:14:19;;;;;;;23.65;9.32;;;8.00;99.90;;;;;;6197512;23;20430;-75
2022/12/05 13:16:49;;;;;;;22.70;9.75;;;8.00;99.90;;;;;;6195954;23;20013;-74
2022/12/05 13:19:51;;;;;;;20.58;10.77;;;9.90;99.90;;;;;;6162232;23;20013;-74
2022/12/05 13:22:24;;;;;;;27.88;10.13;;;7.90;99.90;;;;;;6182442;23;20021;-74
2022/12/05 13:24:53;;;;;;;19.92;10.85;;;7.80;99.90;;;;;;6185252;23;20017;-75
2022/12/05 13:27:26;;;;;;;26.00;11.07;;;7.80;99.90;;;;;;6197207;23;20415;-75